Time;durP1;ratioP1;P1;durP2;ratioP2;P2;SDS_P1;SDS_P2;PMS_P1;PMS_P2;Temp;Humidity;BMP_temperature;BMP_pressure;BME280_temperature;BME280_humidity;BME280_pressure;Samples;Min_cycle;Max_cycle;Signal;HPM_P1;HPM_P2
2023/01/29 00:01:25;;;;;;;1.75;1.20;;;18.10;43.40;;;;;;6129703;23;20131;-79
2023/01/29 00:03:51;;;;;;;1.63;1.10;;;18.10;43.50;;;;;;6155792;23;20140;-79
2023/01/29 00:06:17;;;;;;;1.70;1.25;;;18.10;43.50;;;;;;6156007;23;20143;-80
2023/01/29 00:08:42;;;;;;;1.70;1.40;;;18.10;43.50;;;;;;6129971;23;20223;-80
2023/01/29 00:11:08;;;;;;;1.38;1.10;;;18.10;43.50;;;;;;6156098;23;20155;-79
2023/01/29 00:13:34;;;;;;;1.73;1.27;;;18.10;43.50;;;;;;6129849;23;20183;-79
2023/01/29 00:16:00;;;;;;;1.42;1.20;;;18.10;43.50;;;;;;6155385;23;20370;-79
2023/01/29 00:18:26;;;;;;;2.78;1.38;;;18.10;44.20;;;;;;6106026;23;20139;-79
2023/01/29 00:20:52;;;;;;;1.42;1.17;;;18.00;43.50;;;;;;6129689;23;20143;-79
2023/01/29 00:23:18;;;;;;;1.42;1.20;;;18.00;43.50;;;;;;6130113;23;20143;-80
2023/01/29 00:25:44;;;;;;;2.03;1.00;;;18.00;43.60;;;;;;6130994;23;20187;-80
2023/01/29 00:28:10;;;;;;;1.63;1.35;;;18.00;43.60;;;;;;6107330;23;20163;-79
2023/01/29 00:30:36;;;;;;;1.40;1.10;;;18.00;43.60;;;;;;6131947;23;20575;-79
2023/01/29 00:33:02;;;;;;;3.63;1.40;;;18.00;43.60;;;;;;6157273;23;20190;-79
2023/01/29 00:35:28;;;;;;;1.38;1.23;;;18.00;43.70;;;;;;6131523;23;20147;-79
2023/01/29 00:37:55;;;;;;;1.60;1.27;;;17.90;43.70;;;;;;6157497;23;20467;-79
2023/01/29 00:40:21;;;;;;;2.15;1.17;;;18.00;43.80;;;;;;6157690;23;20571;-79
2023/01/29 00:45:29;;;;;;;1.52;1.13;;;18.00;43.80;;;;;;6157521;23;20136;-80
2023/01/29 00:47:54;;;;;;;1.73;1.20;;;18.00;43.80;;;;;;6082821;23;20155;-79
2023/01/29 00:50:20;;;;;;;1.95;1.35;;;18.00;43.80;;;;;;6157714;23;20585;-80
2023/01/29 00:52:47;;;;;;;2.10;1.40;;;18.00;43.70;;;;;;6157530;23;20139;-79
2023/01/29 00:55:13;;;;;;;1.85;1.10;;;18.00;43.80;;;;;;6131499;23;20474;-79
2023/01/29 00:57:38;;;;;;;1.45;1.30;;;18.00;43.80;;;;;;6157311;23;20634;-79
2023/01/29 01:00:06;;;;;;;1.63;1.25;;;18.00;43.90;;;;;;6157340;23;20132;-79
2023/01/29 01:05:12;;;;;;;1.23;1.13;;;18.00;43.90;;;;;;6157312;23;20663;-79
2023/01/29 01:07:39;;;;;;;1.40;1.30;;;17.90;43.80;;;;;;6132098;23;20615;-80
2023/01/29 01:10:21;;;;;;;1.85;1.38;;;17.90;43.80;;;;;;6157462;23;20206;-79
2023/01/29 01:12:50;;;;;;;1.88;1.10;;;17.90;43.90;;;;;;6157667;23;20469;-79
2023/01/29 01:15:16;;;;;;;1.77;1.23;;;17.90;44.00;;;;;;6131379;23;20266;-79
2023/01/29 01:17:41;;;;;;;1.73;1.25;;;17.90;44.00;;;;;;6156897;23;20167;-79
2023/01/29 01:20:08;;;;;;;1.45;1.30;;;17.90;44.00;;;;;;6157122;23;20218;-80
2023/01/29 01:22:34;;;;;;;2.05;1.52;;;17.90;44.10;;;;;;6131022;23;20136;-79
2023/01/29 01:25:00;;;;;;;1.38;1.10;;;17.80;44.00;;;;;;6156986;23;20187;-80
2023/01/29 01:27:25;;;;;;;1.15;1.00;;;17.80;44.00;;;;;;6157081;23;20140;-79
2023/01/29 01:29:51;;;;;;;1.50;1.20;;;17.80;44.10;;;;;;6156955;23;20143;-79
2023/01/29 01:32:17;;;;;;;1.20;1.10;;;17.90;44.10;;;;;;6157260;23;20559;-79
2023/01/29 01:34:44;;;;;;;1.38;1.10;;;17.90;44.10;;;;;;6156800;23;20197;-79
2023/01/29 01:37:10;;;;;;;1.88;1.42;;;17.80;44.10;;;;;;6156549;23;20207;-79
2023/01/29 01:39:36;;;;;;;1.40;1.30;;;17.80;44.10;;;;;;6157290;23;20132;-80
2023/01/29 01:42:01;;;;;;;1.58;1.30;;;17.80;44.10;;;;;;6156794;23;20131;-79
2023/01/29 01:45:00;;;;;;;1.95;1.38;;;17.80;44.10;;;;;;6106193;23;20155;-80
2023/01/29 01:47:44;;;;;;;2.00;1.30;;;17.80;44.10;;;;;;6130896;23;20136;-80
2023/01/29 01:50:17;;;;;;;1.35;1.23;;;17.80;44.10;;;;;;6131827;23;20143;-79
2023/01/29 01:52:46;;;;;;;2.33;1.20;;;17.80;44.10;;;;;;6130590;23;20132;-80
2023/01/29 01:55:13;;;;;;;2.47;1.38;;;17.80;44.20;;;;;;6131181;23;20590;-79
2023/01/29 01:57:39;;;;;;;1.42;1.23;;;17.80;44.20;;;;;;6131035;23;20136;-79
2023/01/29 02:00:10;;;;;;;1.45;1.10;;;17.80;44.10;;;;;;6156948;23;20466;-79
2023/01/29 02:10:42;;;;;;;1.17;1.08;;;17.80;44.30;;;;;;6156588;23;20135;-79
2023/01/29 02:13:08;;;;;;;1.95;1.30;;;17.80;44.30;;;;;;6130780;23;20170;-79
2023/01/29 02:15:33;;;;;;;1.38;1.20;;;17.80;44.30;;;;;;6156285;23;20187;-79
2023/01/29 02:17:59;;;;;;;2.47;1.20;;;17.70;44.30;;;;;;6130467;23;20147;-79
2023/01/29 02:20:26;;;;;;;1.55;1.40;;;17.80;44.30;;;;;;6130453;23;20509;-80
2023/01/29 02:23:26;;;;;;;1.45;0.98;;;17.80;44.30;;;;;;6106327;23;20147;-80
2023/01/29 02:26:06;;;;;;;1.50;1.23;;;17.80;44.30;;;;;;6156535;23;20132;-79
2023/01/29 02:28:52;;;;;;;1.30;1.00;;;17.70;44.30;;;;;;6156373;23;20127;-79
2023/01/29 02:31:24;;;;;;;1.30;1.20;;;17.70;44.30;;;;;;6156246;23;20193;-79
2023/01/29 02:34:02;;;;;;;2.35;1.20;;;17.70;44.30;;;;;;6156271;23;20166;-80
2023/01/29 02:36:38;;;;;;;1.30;1.13;;;17.70;44.40;;;;;;6130312;23;20237;-79
2023/01/29 02:39:28;;;;;;;1.35;1.25;;;17.70;44.40;;;;;;6156212;23;20135;-79
2023/01/29 02:42:05;;;;;;;1.83;1.42;;;17.70;44.40;;;;;;6156348;23;20139;-80
2023/01/29 02:44:37;;;;;;;1.20;1.05;;;17.70;44.40;;;;;;6156178;23;20154;-79
2023/01/29 02:47:09;;;;;;;1.52;1.35;;;17.70;44.40;;;;;;6156687;23;20589;-79
2023/01/29 02:49:54;;;;;;;2.17;1.30;;;17.70;44.50;;;;;;6156080;23;20148;-80
2023/01/29 02:52:34;;;;;;;1.65;1.10;;;17.70;44.40;;;;;;6156167;23;20559;-79
2023/01/29 02:55:03;;;;;;;1.30;1.20;;;17.70;44.50;;;;;;6155993;23;20196;-79
2023/01/29 02:57:32;;;;;;;1.88;1.20;;;17.70;44.40;;;;;;6156241;23;20131;-79
2023/01/29 02:59:59;;;;;;;1.70;1.20;;;17.70;44.50;;;;;;6130101;23;20132;-79
2023/01/29 03:02:42;;;;;;;1.42;1.20;;;17.70;44.50;;;;;;6156121;23;20131;-80
2023/01/29 03:05:13;;;;;;;1.45;1.25;;;17.70;44.50;;;;;;6156251;23;20139;-79
2023/01/29 03:07:41;;;;;;;1.25;1.10;;;17.60;44.50;;;;;;6129878;23;20166;-79
2023/01/29 03:10:25;;;;;;;1.40;0.93;;;17.70;44.50;;;;;;6155959;23;20136;-79
2023/01/29 03:12:54;;;;;;;1.50;1.10;;;17.70;44.50;;;;;;6155983;23;20574;-79
2023/01/29 03:15:25;;;;;;;2.10;1.25;;;17.60;44.40;;;;;;6155875;23;20196;-79
2023/01/29 03:18:01;;;;;;;1.88;1.30;;;17.70;44.50;;;;;;6130816;23;20162;-79
2023/01/29 03:20:31;;;;;;;1.52;1.20;;;17.70;44.60;;;;;;6105880;23;20131;-80
2023/01/29 03:23:00;;;;;;;1.48;1.25;;;17.60;44.60;;;;;;6156400;23;20604;-80
2023/01/29 03:34:05;;;;;;;1.30;1.20;;;17.60;44.60;;;;;;6155849;23;20246;-79
2023/01/29 03:36:44;;;;;;;1.17;1.08;;;17.60;44.60;;;;;;6135154;23;20147;-80
2023/01/29 03:39:11;;;;;;;2.25;1.30;;;17.50;44.60;;;;;;6156153;23;20213;-79
2023/01/29 03:41:40;;;;;;;1.08;0.98;;;17.60;44.70;;;;;;6130126;23;20135;-80
2023/01/29 03:44:29;;;;;;;1.35;1.15;;;17.60;44.70;;;;;;6130806;23;20214;-79
2023/01/29 03:46:57;;;;;;;3.08;1.30;;;17.70;44.70;;;;;;6156060;23;20155;-79
2023/01/29 03:49:51;;;;;;;1.58;1.15;;;17.60;44.60;;;;;;6155738;23;20214;-79
2023/01/29 03:52:21;;;;;;;1.30;1.10;;;17.60;44.60;;;;;;6135882;23;20154;-80
2023/01/29 03:54:56;;;;;;;1.20;1.00;;;17.60;44.60;;;;;;6155987;23;20160;-79
2023/01/29 03:57:34;;;;;;;1.63;1.20;;;17.60;44.60;;;;;;6130084;23;20158;-79
2023/01/29 04:00:13;;;;;;;1.30;1.08;;;17.60;44.60;;;;;;6131278;23;20135;-79
2023/01/29 04:03:02;;;;;;;1.20;1.08;;;17.60;44.70;;;;;;6158964;23;20529;-79
2023/01/29 04:05:30;;;;;;;1.40;1.27;;;17.60;44.70;;;;;;6159001;23;20236;-79
2023/01/29 04:08:02;;;;;;;1.65;1.42;;;17.60;44.70;;;;;;6159399;23;20173;-79
2023/01/29 04:10:27;;;;;;;1.45;1.00;;;17.60;44.70;;;;;;6158875;23;20613;-79
2023/01/29 04:12:57;;;;;;;1.60;1.20;;;17.60;44.70;;;;;;6158994;23;20154;-79
2023/01/29 04:15:23;;;;;;;1.52;1.00;;;17.60;44.70;;;;;;6133575;23;20218;-80
2023/01/29 04:17:51;;;;;;;1.25;1.00;;;17.60;44.70;;;;;;6132802;23;20143;-79
2023/01/29 04:20:17;;;;;;;2.55;1.10;;;17.60;44.70;;;;;;6134116;23;20459;-80
2023/01/29 04:22:45;;;;;;;1.70;1.20;;;17.60;44.80;;;;;;6133021;23;20589;-79
2023/01/29 04:25:14;;;;;;;1.42;1.20;;;17.60;44.70;;;;;;6108740;23;20139;-79
2023/01/29 04:28:11;;;;;;;1.85;1.20;;;17.60;44.80;;;;;;6159022;23;20215;-79
2023/01/29 04:30:56;;;;;;;1.27;1.10;;;17.60;44.70;;;;;;6159375;23;20567;-79
2023/01/29 04:33:32;;;;;;;1.63;1.20;;;17.60;44.70;;;;;;6159164;23;20175;-79
2023/01/29 04:36:21;;;;;;;1.67;1.13;;;17.60;44.80;;;;;;6158943;23;20135;-79
2023/01/29 04:39:18;;;;;;;1.10;1.00;;;17.60;44.80;;;;;;6138053;23;20144;-80
2023/01/29 04:41:57;;;;;;;1.45;1.20;;;17.50;44.80;;;;;;6158793;23;20270;-79
2023/01/29 04:44:38;;;;;;;1.52;1.10;;;17.50;44.80;;;;;;6158984;23;20135;-79
2023/01/29 04:47:41;;;;;;;1.20;1.10;;;17.50;44.80;;;;;;6158970;23;20182;-79
2023/01/29 04:50:14;;;;;;;2.05;1.10;;;17.60;44.90;;;;;;6141868;23;20162;-79
2023/01/29 04:52:50;;;;;;;1.10;1.00;;;17.50;44.80;;;;;;6158793;23;20136;-79
2023/01/29 04:55:34;;;;;;;1.40;1.10;;;17.50;44.80;;;;;;6110201;23;20143;-80
2023/01/29 04:58:09;;;;;;;1.98;1.50;;;17.50;44.80;;;;;;6158846;23;20131;-79
2023/01/29 05:00:38;;;;;;;1.40;1.20;;;17.50;44.80;;;;;;6133428;23;20135;-80
2023/01/29 05:03:03;;;;;;;1.42;1.02;;;17.60;44.90;;;;;;6158614;23;20135;-80
2023/01/29 05:05:29;;;;;;;1.80;1.00;;;17.50;44.80;;;;;;6158634;23;20581;-79
2023/01/29 05:07:55;;;;;;;1.20;1.10;;;17.50;44.90;;;;;;6108541;23;20143;-79
2023/01/29 05:10:21;;;;;;;1.40;1.10;;;17.50;44.90;;;;;;6132698;23;20140;-79
2023/01/29 05:12:50;;;;;;;1.38;0.98;;;17.50;44.90;;;;;;6157142;23;20132;-79
2023/01/29 05:15:19;;;;;;;1.55;1.17;;;17.50;44.90;;;;;;6156953;23;20194;-79
2023/01/29 05:17:44;;;;;;;1.15;1.05;;;17.50;44.90;;;;;;6106465;23;20155;-79
2023/01/29 05:20:11;;;;;;;1.48;1.20;;;17.50;44.90;;;;;;6131315;23;20135;-79
2023/01/29 05:22:38;;;;;;;1.45;1.00;;;17.50;44.90;;;;;;6130996;23;20560;-79
2023/01/29 05:25:26;;;;;;;1.30;1.20;;;17.50;44.90;;;;;;6131142;23;20607;-79
2023/01/29 05:30:28;;;;;;;1.30;1.00;;;17.50;44.90;;;;;;6157132;23;20192;-80
2023/01/29 05:32:53;;;;;;;1.50;1.10;;;17.50;44.90;;;;;;6131148;23;20140;-79
2023/01/29 05:35:19;;;;;;;1.55;1.30;;;17.50;44.90;;;;;;6157053;23;20567;-79
2023/01/29 05:37:45;;;;;;;1.10;1.00;;;17.50;44.90;;;;;;6156860;23;20136;-79
2023/01/29 05:40:11;;;;;;;1.33;1.10;;;17.50;44.90;;;;;;6156923;23;20571;-79
2023/01/29 05:42:36;;;;;;;1.15;0.95;;;17.50;44.90;;;;;;6156915;23;20159;-79
2023/01/29 05:45:02;;;;;;;0.75;0.75;;;17.50;45.00;;;;;;6157132;23;20147;-79
2023/01/29 05:47:28;;;;;;;1.77;1.23;;;17.50;44.90;;;;;;6156811;23;20139;-80
2023/01/29 05:49:53;;;;;;;1.48;0.93;;;17.50;45.00;;;;;;6130789;23;20568;-79
2023/01/29 05:52:19;;;;;;;1.50;1.00;;;17.40;45.00;;;;;;6156767;23;20582;-79
2023/01/29 05:54:45;;;;;;;1.08;0.98;;;17.50;45.00;;;;;;6156708;23;20163;-79
2023/01/29 05:57:10;;;;;;;0.90;0.85;;;17.40;45.00;;;;;;6157058;23;20587;-80
2023/01/29 05:59:36;;;;;;;2.05;1.42;;;17.50;45.00;;;;;;6157079;23;20140;-79
2023/01/29 06:02:02;;;;;;;1.67;1.00;;;17.40;45.00;;;;;;6157022;23;20675;-79
2023/01/29 06:04:27;;;;;;;1.30;1.00;;;17.50;45.00;;;;;;6130704;23;20597;-80
2023/01/29 06:06:53;;;;;;;0.85;0.85;;;17.50;45.00;;;;;;6130760;23;20555;-80
2023/01/29 06:09:18;;;;;;;1.52;1.25;;;17.50;45.10;;;;;;6106277;23;20203;-79
2023/01/29 06:11:44;;;;;;;1.88;1.00;;;17.50;45.10;;;;;;6130738;23;20616;-80
2023/01/29 06:14:10;;;;;;;1.60;1.00;;;17.50;45.10;;;;;;6130611;23;20613;-79
2023/01/29 06:16:35;;;;;;;1.60;1.17;;;17.40;45.00;;;;;;6156292;23;20650;-79
2023/01/29 06:19:01;;;;;;;0.80;0.80;;;17.50;45.10;;;;;;6130554;23;20571;-79
2023/01/29 06:21:27;;;;;;;1.15;1.05;;;17.50;45.00;;;;;;6156680;23;20494;-79
2023/01/29 06:23:52;;;;;;;1.40;1.10;;;17.50;45.00;;;;;;6105970;23;20447;-79
2023/01/29 06:26:18;;;;;;;1.67;1.20;;;17.50;45.00;;;;;;6130714;23;20154;-79
2023/01/29 06:28:44;;;;;;;1.52;0.95;;;17.50;45.00;;;;;;6156500;23;20593;-79
2023/01/29 06:31:10;;;;;;;1.58;1.20;;;17.50;45.00;;;;;;6156387;23;20135;-80
2023/01/29 06:33:36;;;;;;;1.63;1.05;;;17.50;45.00;;;;;;6156380;23;20167;-79
2023/01/29 06:36:03;;;;;;;1.45;1.10;;;17.50;44.90;;;;;;6130807;23;20214;-79
2023/01/29 06:38:28;;;;;;;1.20;1.00;;;17.50;45.00;;;;;;6130897;23;20569;-79
2023/01/29 06:40:54;;;;;;;1.48;1.08;;;17.50;45.00;;;;;;6156862;23;20206;-79
2023/01/29 06:43:20;;;;;;;1.25;1.10;;;17.50;45.00;;;;;;6130700;23;20199;-79
2023/01/29 06:45:49;;;;;;;1.27;1.10;;;17.50;45.00;;;;;;6130540;23;20263;-79
2023/01/29 06:48:15;;;;;;;1.15;1.05;;;17.50;45.00;;;;;;6156167;23;20143;-80
2023/01/29 06:50:40;;;;;;;1.83;1.10;;;17.50;44.90;;;;;;6130586;23;20147;-80
2023/01/29 06:53:06;;;;;;;1.25;1.15;;;17.50;44.90;;;;;;6130658;23;20143;-79
2023/01/29 06:55:32;;;;;;;1.98;1.20;;;17.50;44.90;;;;;;6156083;23;20563;-79
2023/01/29 06:57:57;;;;;;;1.88;1.08;;;17.50;45.00;;;;;;6156115;23;20567;-80
2023/01/29 07:00:23;;;;;;;1.75;1.17;;;17.50;45.00;;;;;;6156180;23;20162;-79
2023/01/29 07:02:49;;;;;;;2.08;1.15;;;17.50;45.10;;;;;;6156017;23;20587;-79
2023/01/29 07:05:14;;;;;;;2.30;0.90;;;17.50;45.10;;;;;;6156190;23;20567;-80
2023/01/29 07:07:40;;;;;;;3.10;1.00;;;17.50;45.10;;;;;;6130159;23;20136;-80
2023/01/29 07:10:06;;;;;;;2.67;1.00;;;17.50;45.10;;;;;;6129954;23;20234;-80
2023/01/29 07:12:32;;;;;;;1.83;1.00;;;17.50;45.10;;;;;;6130016;23;20555;-79
2023/01/29 07:14:58;;;;;;;2.50;1.20;;;17.40;45.10;;;;;;6155596;23;20254;-79
2023/01/29 07:17:23;;;;;;;1.15;0.90;;;17.50;45.10;;;;;;6155963;23;20471;-80
2023/01/29 07:19:49;;;;;;;1.50;1.13;;;17.40;45.10;;;;;;6156059;23;20210;-79
2023/01/29 07:22:15;;;;;;;2.28;1.08;;;17.40;45.10;;;;;;6155933;23;20582;-79
2023/01/29 07:24:41;;;;;;;3.25;1.20;;;17.40;45.10;;;;;;6156318;23;20549;-79
2023/01/29 07:27:06;;;;;;;1.75;1.00;;;17.50;45.10;;;;;;6156177;23;20465;-80
2023/01/29 07:29:32;;;;;;;1.98;1.10;;;17.50;45.10;;;;;;6156116;23;20143;-80
2023/01/29 07:31:58;;;;;;;4.38;1.08;;;17.50;45.10;;;;;;6155907;23;20136;-80
2023/01/29 07:34:24;;;;;;;1.83;1.20;;;17.50;45.10;;;;;;6155666;23;20168;-79
2023/01/29 07:36:52;;;;;;;2.35;1.08;;;17.40;45.10;;;;;;6155925;23;20127;-79
2023/01/29 07:39:18;;;;;;;1.10;0.90;;;17.50;45.10;;;;;;6130382;23;20211;-79
2023/01/29 07:41:44;;;;;;;2.05;1.00;;;17.40;45.00;;;;;;6155568;23;20167;-79
2023/01/29 07:44:09;;;;;;;3.33;1.10;;;17.40;45.10;;;;;;6129896;23;20135;-80
2023/01/29 07:46:35;;;;;;;2.00;1.30;;;17.40;45.20;;;;;;6155907;23;20143;-80
2023/01/29 07:49:00;;;;;;;1.10;1.00;;;17.40;45.20;;;;;;6155328;23;20479;-80
2023/01/29 07:51:26;;;;;;;3.20;1.20;;;17.40;45.30;;;;;;6155371;23;20175;-79
2023/01/29 07:53:52;;;;;;;2.60;1.10;;;17.40;45.30;;;;;;6155591;23;20599;-80
2023/01/29 07:56:17;;;;;;;1.77;1.23;;;17.50;45.30;;;;;;6129757;23;20568;-79
2023/01/29 07:58:43;;;;;;;1.52;1.10;;;17.50;45.30;;;;;;6130187;23;20503;-81
2023/01/29 08:01:09;;;;;;;1.35;1.08;;;17.50;45.30;;;;;;6128998;23;20595;-80
2023/01/29 08:03:34;;;;;;;1.85;1.10;;;17.50;45.50;;;;;;6130698;23;20163;-83
2023/01/29 08:06:01;;;;;;;4.07;1.40;;;17.60;45.20;;;;;;6105855;23;20155;-83
2023/01/29 08:08:30;;;;;;;2.75;1.20;;;17.60;45.20;;;;;;6156473;23;20151;-81
2023/01/29 08:11:01;;;;;;;1.75;0.98;;;17.70;45.10;;;;;;6073172;23;20153;-81
2023/01/29 08:13:27;;;;;;;2.75;1.00;;;17.70;44.90;;;;;;6071836;23;20242;-81
2023/01/29 08:15:52;;;;;;;7.63;1.63;;;17.70;45.20;;;;;;6072560;23;20588;-81
2023/01/29 08:18:18;;;;;;;6.63;1.65;;;17.70;45.20;;;;;;6097000;23;20668;-81
2023/01/29 08:20:45;;;;;;;8.10;1.30;;;17.70;44.90;;;;;;6072184;23;20161;-81
2023/01/29 08:23:13;;;;;;;10.68;1.55;;;17.80;45.10;;;;;;6072565;23;20141;-81
2023/01/29 08:25:39;;;;;;;13.20;1.60;;;17.70;45.10;;;;;;6072329;23;20153;-81
2023/01/29 08:28:04;;;;;;;8.55;1.60;;;17.80;45.10;;;;;;6072029;23;20201;-81
2023/01/29 08:30:31;;;;;;;15.23;2.05;;;17.80;45.00;;;;;;6097134;23;20654;-81
2023/01/29 08:32:57;;;;;;;19.05;2.28;;;17.90;45.10;;;;;;6073431;23;20137;-81
2023/01/29 08:35:25;;;;;;;24.77;2.70;;;18.00;44.90;;;;;;6072663;23;20149;-81
2023/01/29 08:37:54;;;;;;;32.13;3.53;;;18.10;44.80;;;;;;6095994;23;20133;-82
2023/01/29 08:40:20;;;;;;;26.17;2.60;;;18.20;44.70;;;;;;6072015;23;20243;-81
2023/01/29 08:42:49;;;;;;;61.28;4.88;;;18.20;44.80;;;;;;6123909;23;20151;-82
2023/01/29 08:45:14;;;;;;;63.90;4.43;;;18.30;44.60;;;;;;6132981;23;20164;-81
2023/01/29 08:47:47;;;;;;;61.22;5.20;;;18.30;44.60;;;;;;6084136;23;20155;-78
2023/01/29 08:50:17;;;;;;;73.18;5.22;;;18.30;44.70;;;;;;6085498;23;20178;-79
2023/01/29 08:52:43;;;;;;;101.05;5.93;;;18.40;44.80;;;;;;6134093;23;20132;-80
2023/01/29 08:55:11;;;;;;;101.28;6.60;;;18.40;45.00;;;;;;6109979;23;20237;-81
2023/01/29 08:57:37;;;;;;;95.47;7.13;;;18.40;44.80;;;;;;6086778;23;20199;-82
2023/01/29 09:00:04;;;;;;;99.75;6.93;;;18.40;45.10;;;;;;6084201;23;20230;-79
2023/01/29 09:02:30;;;;;;;80.22;6.28;;;18.40;44.70;;;;;;6106130;23;20132;-80
2023/01/29 09:04:56;;;;;;;78.45;6.93;;;18.40;44.80;;;;;;6130430;23;20202;-81
2023/01/29 09:07:22;;;;;;;75.07;6.07;;;18.40;44.70;;;;;;6156471;23;20135;-81
2023/01/29 09:09:47;;;;;;;81.22;6.10;;;18.40;44.90;;;;;;6106803;23;20210;-80
2023/01/29 09:12:13;;;;;;;98.15;5.68;;;18.40;45.00;;;;;;6106512;23;20139;-81
2023/01/29 09:14:38;;;;;;;70.95;5.28;;;18.40;44.90;;;;;;6130840;23;20599;-82
2023/01/29 09:17:05;;;;;;;43.53;3.97;;;18.30;45.10;;;;;;6130671;23;20147;-82
2023/01/29 09:19:33;;;;;;;62.83;5.97;;;18.50;45.20;;;;;;6130940;23;20142;-80
2023/01/29 09:21:59;;;;;;;75.63;4.97;;;18.50;45.00;;;;;;6131558;23;20293;-79
2023/01/29 09:24:24;;;;;;;53.85;4.28;;;18.50;45.00;;;;;;6131806;23;20579;-81
2023/01/29 09:26:50;;;;;;;45.60;3.97;;;18.50;44.80;;;;;;6156758;23;20162;-80
2023/01/29 09:29:16;;;;;;;47.05;4.50;;;18.50;44.80;;;;;;6131575;23;20136;-80
2023/01/29 09:31:41;;;;;;;54.42;4.38;;;18.60;44.90;;;;;;6131083;23;20482;-79
2023/01/29 09:34:07;;;;;;;42.53;4.28;;;18.60;44.80;;;;;;6156714;23;20160;-78
2023/01/29 09:36:32;;;;;;;54.47;4.72;;;18.60;44.90;;;;;;6082702;23;20158;-79
2023/01/29 09:38:58;;;;;;;34.78;3.38;;;18.50;44.80;;;;;;6156952;23;20148;-80
2023/01/29 09:41:44;;;;;;;37.70;3.65;;;18.50;44.90;;;;;;6131987;23;20519;-79
2023/01/29 09:44:16;;;;;;;41.92;4.18;;;18.50;44.90;;;;;;6156564;23;20226;-79
2023/01/29 09:46:43;;;;;;;31.98;3.35;;;18.50;45.00;;;;;;6108576;23;20159;-79
2023/01/29 09:49:31;;;;;;;35.28;3.60;;;18.60;45.10;;;;;;6132015;23;20139;-81
2023/01/29 09:52:15;;;;;;;23.13;2.63;;;18.60;45.00;;;;;;6134361;23;20156;-81
2023/01/29 09:55:03;;;;;;;25.30;2.95;;;18.60;45.10;;;;;;6132644;23;20159;-80
2023/01/29 09:57:50;;;;;;;36.00;3.63;;;18.50;45.00;;;;;;6161316;23;20142;-84
2023/01/29 10:00:24;;;;;;;42.88;3.88;;;18.50;45.30;;;;;;6134958;23;20176;-80
2023/01/29 10:03:10;;;;;;;33.85;3.85;;;18.60;45.50;;;;;;6130019;23;20132;-80
2023/01/29 10:06:10;;;;;;;42.08;3.63;;;18.60;45.40;;;;;;6105319;23;20246;-79
2023/01/29 10:08:51;;;;;;;47.70;3.70;;;18.50;45.40;;;;;;6137415;23;20146;-79
2023/01/29 10:11:35;;;;;;;34.83;3.30;;;18.50;45.50;;;;;;6156701;23;20295;-78
2023/01/29 10:14:31;;;;;;;33.55;3.67;;;18.40;45.70;;;;;;6156754;23;20214;-79
2023/01/29 10:17:20;;;;;;;46.03;4.10;;;18.40;45.70;;;;;;6132423;23;20202;-79
2023/01/29 10:20:26;;;;;;;44.90;4.05;;;18.40;45.90;;;;;;6155895;23;20136;-78
2023/01/29 10:23:20;;;;;;;29.70;3.20;;;18.40;45.80;;;;;;6134118;23;20154;-79
2023/01/29 10:25:46;;;;;;;30.10;3.42;;;18.30;45.90;;;;;;6156076;23;20140;-79
2023/01/29 10:28:22;;;;;;;26.15;2.65;;;18.40;45.90;;;;;;6156747;23;20462;-79
2023/01/29 10:30:49;;;;;;;28.58;3.20;;;18.30;45.80;;;;;;6130975;23;20147;-78
2023/01/29 10:33:22;;;;;;;23.20;2.53;;;18.40;45.90;;;;;;6106162;23;20218;-79
2023/01/29 10:35:51;;;;;;;17.92;2.53;;;18.50;45.60;;;;;;6155789;23;20155;-79
2023/01/29 10:38:43;;;;;;;21.90;2.63;;;18.40;45.40;;;;;;6129807;23;20155;-79
2023/01/29 10:41:37;;;;;;;21.33;2.72;;;18.40;45.80;;;;;;6156116;23;20214;-79
2023/01/29 10:44:42;;;;;;;24.15;2.88;;;18.40;45.70;;;;;;6136308;23;20183;-78
2023/01/29 10:47:40;;;;;;;22.58;2.78;;;18.40;45.90;;;;;;6119052;23;20195;-79
2023/01/29 10:50:27;;;;;;;28.67;2.65;;;18.50;45.90;;;;;;6134884;23;20143;-79
2023/01/29 10:53:19;;;;;;;19.27;2.65;;;18.40;45.80;;;;;;6108271;23;20175;-79
2023/01/29 10:56:04;;;;;;;24.23;2.80;;;18.40;46.30;;;;;;6137452;23;20166;-80
2023/01/29 10:58:45;;;;;;;21.73;2.67;;;18.40;46.20;;;;;;6130710;23;20477;-81
2023/01/29 11:01:11;;;;;;;18.60;2.30;;;18.40;46.30;;;;;;6106405;23;20166;-81
2023/01/29 11:03:37;;;;;;;13.52;2.40;;;18.30;46.30;;;;;;6155464;23;20139;-80
2023/01/29 11:06:16;;;;;;;25.52;3.00;;;18.30;46.30;;;;;;6129960;23;20474;-80
2023/01/29 11:08:57;;;;;;;22.15;2.38;;;18.30;46.40;;;;;;6155735;23;20143;-81
2023/01/29 11:11:32;;;;;;;24.70;2.53;;;18.40;46.00;;;;;;6155647;23;20217;-80
2023/01/29 11:14:03;;;;;;;17.77;2.63;;;18.40;46.20;;;;;;6156219;23;20178;-80
2023/01/29 11:16:32;;;;;;;15.57;2.03;;;18.40;46.20;;;;;;6130005;23;20202;-80
2023/01/29 11:19:00;;;;;;;12.68;2.13;;;18.40;45.90;;;;;;6155791;23;20651;-81
2023/01/29 11:21:26;;;;;;;15.88;2.53;;;18.40;45.80;;;;;;6155835;23;20155;-80
2023/01/29 11:24:11;;;;;;;21.60;2.83;;;18.50;45.80;;;;;;6155905;23;20179;-80
2023/01/29 11:26:38;;;;;;;9.05;1.80;;;18.50;45.90;;;;;;6156332;23;20155;-80
2023/01/29 11:29:04;;;;;;;18.75;2.50;;;18.40;45.90;;;;;;6155856;23;20148;-80
2023/01/29 11:31:37;;;;;;;8.82;1.90;;;18.50;46.10;;;;;;6129829;23;20299;-81
2023/01/29 11:34:05;;;;;;;11.13;2.00;;;18.40;46.10;;;;;;6155703;23;20250;-81
2023/01/29 11:36:36;;;;;;;15.73;2.45;;;18.40;46.30;;;;;;6129529;23;20158;-81
2023/01/29 11:39:20;;;;;;;18.02;2.25;;;18.40;46.30;;;;;;6129975;23;20131;-80
2023/01/29 11:42:02;;;;;;;11.70;1.60;;;18.40;46.30;;;;;;6129350;23;20136;-81
2023/01/29 11:44:35;;;;;;;9.80;1.92;;;18.40;46.40;;;;;;6155632;23;20142;-81
2023/01/29 11:47:20;;;;;;;10.73;1.90;;;18.40;46.30;;;;;;6155619;23;20569;-80
2023/01/29 11:49:51;;;;;;;18.65;1.83;;;18.40;46.20;;;;;;6129745;23;20144;-80
2023/01/29 11:52:19;;;;;;;12.73;1.67;;;18.40;46.30;;;;;;6155452;23;20155;-81
2023/01/29 11:54:55;;;;;;;17.17;2.10;;;18.40;46.00;;;;;;6155740;23;20471;-80
2023/01/29 11:57:25;;;;;;;13.95;1.60;;;18.40;46.10;;;;;;6155683;23;20136;-80
2023/01/29 11:59:51;;;;;;;10.77;1.55;;;18.40;46.00;;;;;;6155526;23;20752;-80
2023/01/29 12:02:25;;;;;;;11.70;2.05;;;18.40;46.10;;;;;;6155951;23;20183;-80
2023/01/29 12:04:51;;;;;;;15.43;2.00;;;18.40;46.20;;;;;;6129911;23;20135;-80
2023/01/29 12:07:17;;;;;;;10.75;1.40;;;18.40;46.30;;;;;;6155687;23;20139;-80
2023/01/29 12:09:58;;;;;;;14.57;1.80;;;18.30;46.10;;;;;;6155870;23;20547;-80
2023/01/29 12:12:31;;;;;;;11.52;1.95;;;18.40;46.10;;;;;;6129918;23;20463;-80
2023/01/29 12:15:18;;;;;;;10.27;1.60;;;18.40;46.20;;;;;;6155153;23;20164;-80
2023/01/29 12:17:50;;;;;;;9.27;1.70;;;18.40;46.10;;;;;;6155579;23;20138;-80
2023/01/29 12:20:20;;;;;;;6.95;1.33;;;18.40;46.10;;;;;;6155971;23;20516;-80
2023/01/29 12:22:55;;;;;;;13.38;1.50;;;18.40;46.20;;;;;;6107904;23;20132;-80
2023/01/29 12:25:34;;;;;;;12.95;1.70;;;18.40;46.10;;;;;;6132607;23;20135;-80
2023/01/29 12:28:03;;;;;;;8.00;1.30;;;18.40;46.10;;;;;;6106994;23;20490;-80
2023/01/29 12:30:36;;;;;;;6.60;1.25;;;18.40;46.30;;;;;;6157925;23;20136;-80
2023/01/29 12:33:25;;;;;;;7.32;1.30;;;18.40;46.30;;;;;;6131290;23;20146;-81
2023/01/29 12:36:00;;;;;;;6.72;1.08;;;18.30;46.20;;;;;;6107010;23;20202;-81
2023/01/29 12:38:25;;;;;;;6.05;1.17;;;18.40;45.90;;;;;;6131345;23;20142;-81
2023/01/29 12:41:04;;;;;;;3.88;1.15;;;18.40;46.00;;;;;;6131452;23;20140;-80
2023/01/29 12:43:34;;;;;;;6.35;1.35;;;18.40;45.90;;;;;;6157758;23;20226;-80
2023/01/29 12:46:00;;;;;;;8.43;1.88;;;18.40;46.00;;;;;;6157673;23;20555;-81
2023/01/29 12:48:30;;;;;;;8.35;1.10;;;18.40;46.80;;;;;;6157448;23;20243;-80
2023/01/29 12:51:00;;;;;;;3.78;1.10;;;18.40;45.90;;;;;;6131756;23;20163;-80
2023/01/29 12:53:29;;;;;;;5.43;0.90;;;18.40;45.80;;;;;;6131455;23;20214;-80
2023/01/29 12:56:01;;;;;;;5.40;1.20;;;18.40;46.00;;;;;;6156099;23;20929;-80
2023/01/29 12:58:36;;;;;;;5.15;1.23;;;18.40;45.90;;;;;;6131143;23;20135;-80
2023/01/29 13:01:08;;;;;;;5.55;0.98;;;18.40;46.00;;;;;;6157260;23;20555;-80
2023/01/29 13:03:47;;;;;;;8.20;1.50;;;18.40;45.80;;;;;;6157293;23;20139;-80
2023/01/29 13:06:15;;;;;;;3.75;1.10;;;18.40;46.00;;;;;;6130996;23;20147;-80
2023/01/29 13:08:44;;;;;;;6.00;1.40;;;18.40;45.70;;;;;;6157180;23;20135;-80
2023/01/29 13:11:14;;;;;;;6.43;1.20;;;18.40;46.00;;;;;;6131438;23;20135;-80
2023/01/29 13:13:52;;;;;;;8.05;1.45;;;18.40;46.10;;;;;;6130852;23;20163;-80
2023/01/29 13:16:22;;;;;;;3.92;0.98;;;18.40;46.00;;;;;;6132556;23;20247;-80
2023/01/29 13:19:01;;;;;;;7.35;1.10;;;18.40;45.70;;;;;;6131614;23;20146;-80
2023/01/29 13:21:34;;;;;;;5.97;1.38;;;18.40;45.50;;;;;;6157398;23;20135;-80
2023/01/29 13:24:08;;;;;;;5.30;0.93;;;18.40;45.90;;;;;;6157368;23;20194;-80
2023/01/29 13:26:34;;;;;;;4.30;1.02;;;18.40;45.80;;;;;;6157115;23;20135;-80
2023/01/29 13:29:01;;;;;;;6.03;1.17;;;18.40;46.20;;;;;;6131415;23;20154;-79